Time;durP1;ratioP1;P1;durP2;ratioP2;P2;SDS_P1;SDS_P2;PMS_P1;PMS_P2;Temp;Humidity;BMP_temperature;BMP_pressure;BME280_temperature;BME280_humidity;BME280_pressure;Samples;Min_cycle;Max_cycle;Signal;HPM_P1;HPM_P2
2021/08/16 00:00:23;;;;;;;14.02;2.60;;;17.10;99.90;;;;;;5092229;28;20039;-66
2021/08/16 00:02:49;;;;;;;18.13;2.90;;;17.10;99.90;;;;;;5092731;28;20039;-66
2021/08/16 00:05:16;;;;;;;22.20;3.45;;;17.10;99.90;;;;;;5092473;28;20035;-66
2021/08/16 00:07:43;;;;;;;18.30;2.83;;;17.10;99.90;;;;;;5092477;28;20570;-65
2021/08/16 00:10:13;;;;;;;10.23;1.70;;;17.10;99.90;;;;;;5092712;28;20031;-66
2021/08/16 00:12:39;;;;;;;14.05;2.17;;;17.10;99.90;;;;;;5082997;28;20738;-66
2021/08/16 00:15:05;;;;;;;17.33;3.28;;;17.00;99.90;;;;;;5083058;28;20111;-68
2021/08/16 00:17:30;;;;;;;24.85;2.33;;;17.00;99.90;;;;;;5091737;28;20059;-66
2021/08/16 00:19:57;;;;;;;15.98;3.67;;;17.00;99.90;;;;;;5092737;28;20047;-66
2021/08/16 00:22:22;;;;;;;18.60;3.28;;;17.00;99.90;;;;;;5094513;28;20027;-66
2021/08/16 00:24:49;;;;;;;15.73;1.48;;;17.10;99.90;;;;;;5096442;28;20020;-66
2021/08/16 00:27:15;;;;;;;22.50;2.33;;;17.10;99.90;;;;;;5094013;28;20115;-66
2021/08/16 00:29:41;;;;;;;13.88;2.33;;;17.20;99.90;;;;;;5082887;28;20050;-66
2021/08/16 00:32:07;;;;;;;14.55;2.17;;;17.20;99.90;;;;;;5082618;28;20044;-66
2021/08/16 00:34:32;;;;;;;17.73;2.20;;;17.20;99.90;;;;;;5092144;28;20035;-66
2021/08/16 00:36:58;;;;;;;16.70;2.80;;;17.30;99.90;;;;;;5091560;28;20043;-66
2021/08/16 00:39:24;;;;;;;15.65;3.00;;;17.40;99.90;;;;;;5091382;28;20107;-66
2021/08/16 00:41:50;;;;;;;20.38;2.65;;;17.30;99.90;;;;;;5092260;28;20080;-66
2021/08/16 00:44:16;;;;;;;19.67;3.20;;;17.40;99.90;;;;;;5091799;28;20040;-66
2021/08/16 00:46:42;;;;;;;17.88;1.80;;;17.40;99.90;;;;;;5081650;28;20035;-67
2021/08/16 00:49:08;;;;;;;10.40;1.65;;;17.40;99.90;;;;;;5091858;28;20766;-66
2021/08/16 00:51:36;;;;;;;11.50;2.08;;;17.50;99.90;;;;;;5081710;28;20058;-66
2021/08/16 00:54:07;;;;;;;13.55;1.92;;;17.60;99.90;;;;;;5081753;28;20871;-66
2021/08/16 00:56:35;;;;;;;16.00;1.85;;;17.60;99.90;;;;;;5090954;28;20047;-66
2021/08/16 00:59:01;;;;;;;15.20;1.50;;;17.70;99.90;;;;;;5091653;28;20028;-66
2021/08/16 01:01:28;;;;;;;9.82;2.08;;;17.70;99.90;;;;;;5091116;28;20032;-66
2021/08/16 01:03:54;;;;;;;10.77;1.60;;;17.70;99.90;;;;;;5091316;28;20028;-66
2021/08/16 01:06:20;;;;;;;18.30;1.98;;;17.70;99.90;;;;;;5088690;28;20570;-66
2021/08/16 01:08:47;;;;;;;13.25;2.58;;;17.80;99.90;;;;;;5091340;28;20046;-66
2021/08/16 01:11:14;;;;;;;11.30;1.67;;;17.80;99.90;;;;;;5091435;28;20036;-66
2021/08/16 01:13:40;;;;;;;10.60;2.42;;;17.80;99.90;;;;;;5090655;28;20044;-66
2021/08/16 01:16:06;;;;;;;10.90;1.35;;;17.80;99.90;;;;;;5090846;28;20100;-66
2021/08/16 01:18:35;;;;;;;14.00;1.55;;;17.90;99.90;;;;;;5090620;28;20480;-66
2021/08/16 01:21:06;;;;;;;12.88;1.42;;;17.90;99.90;;;;;;5091223;28;20103;-66
2021/08/16 01:23:32;;;;;;;9.00;1.38;;;17.80;99.90;;;;;;5090139;28;20046;-66
2021/08/16 01:25:58;;;;;;;14.43;2.45;;;17.80;99.90;;;;;;5091134;28;20024;-66
2021/08/16 01:28:24;;;;;;;13.05;1.50;;;17.90;99.90;;;;;;5090244;28;20052;-66
2021/08/16 01:30:53;;;;;;;9.68;1.63;;;17.90;99.90;;;;;;5081561;28;20028;-66
2021/08/16 01:33:20;;;;;;;10.73;1.73;;;17.90;99.90;;;;;;5091086;28;20036;-66
2021/08/16 01:35:45;;;;;;;6.93;1.25;;;18.00;99.90;;;;;;5090011;28;20027;-67
2021/08/16 01:38:11;;;;;;;12.05;1.50;;;17.90;99.90;;;;;;5090999;28;20048;-66
2021/08/16 01:40:37;;;;;;;5.78;1.30;;;17.90;99.90;;;;;;5090690;28;20074;-66
2021/08/16 01:43:03;;;;;;;13.85;2.08;;;17.90;99.90;;;;;;5090558;28;20039;-66
2021/08/16 01:45:30;;;;;;;9.52;1.75;;;17.90;99.90;;;;;;5090903;28;20113;-66
2021/08/16 01:47:56;;;;;;;15.80;2.28;;;17.90;99.90;;;;;;5089778;28;20043;-67
2021/08/16 01:50:22;;;;;;;14.35;2.38;;;17.90;99.90;;;;;;5090695;28;20032;-66
2021/08/16 01:52:47;;;;;;;7.75;0.90;;;17.90;99.90;;;;;;5090360;28;20065;-66
2021/08/16 01:55:13;;;;;;;5.60;1.65;;;17.90;99.90;;;;;;5086752;28;20058;-69
2021/08/16 01:57:39;;;;;;;6.13;1.00;;;17.90;99.90;;;;;;5089424;28;20031;-66
2021/08/16 02:00:05;;;;;;;8.38;1.33;;;17.80;99.90;;;;;;5090050;28;20028;-66
2021/08/16 02:02:31;;;;;;;12.60;1.70;;;17.80;99.90;;;;;;5090918;28;20424;-66
2021/08/16 02:04:57;;;;;;;8.50;1.50;;;17.70;99.90;;;;;;5090080;28;20020;-66
2021/08/16 02:07:22;;;;;;;10.40;1.88;;;17.70;99.90;;;;;;5080613;28;20546;-66
2021/08/16 02:09:48;;;;;;;8.48;1.65;;;17.60;99.90;;;;;;5089691;28;20100;-66
2021/08/16 02:12:13;;;;;;;11.93;1.60;;;17.60;99.90;;;;;;5089204;28;20056;-67
2021/08/16 02:14:39;;;;;;;11.77;1.40;;;17.70;99.90;;;;;;5090116;28;20118;-66
2021/08/16 02:17:05;;;;;;;7.75;1.27;;;17.60;99.90;;;;;;5089923;28;20036;-66
2021/08/16 02:19:31;;;;;;;7.80;1.33;;;17.60;99.90;;;;;;5089911;28;20151;-66
2021/08/16 02:21:56;;;;;;;9.27;2.03;;;17.70;99.90;;;;;;5089761;28;20459;-66
2021/08/16 02:24:22;;;;;;;5.20;1.10;;;17.60;99.90;;;;;;5090177;28;20039;-65
2021/08/16 02:26:48;;;;;;;9.98;1.75;;;17.60;99.90;;;;;;5089151;28;20044;-67
2021/08/16 02:29:14;;;;;;;8.60;1.38;;;17.70;99.90;;;;;;5089964;28;20123;-66
2021/08/16 02:31:39;;;;;;;7.40;0.95;;;17.60;99.90;;;;;;5089973;28;20028;-66
2021/08/16 02:34:06;;;;;;;7.35;1.33;;;17.70;99.90;;;;;;5089520;28;20040;-66
2021/08/16 02:36:31;;;;;;;9.57;1.10;;;17.70;99.90;;;;;;5088944;28;20050;-66
2021/08/16 02:38:57;;;;;;;10.68;1.92;;;17.70;99.90;;;;;;5089749;28;20033;-66
2021/08/16 02:41:22;;;;;;;9.13;1.50;;;17.70;99.90;;;;;;5077100;28;20044;-68
2021/08/16 02:43:48;;;;;;;21.67;2.30;;;17.70;99.90;;;;;;5089141;28;20036;-69
2021/08/16 02:46:14;;;;;;;6.25;1.42;;;17.60;99.90;;;;;;5079343;28;20028;-66
2021/08/16 02:48:39;;;;;;;5.82;1.13;;;17.70;99.90;;;;;;5089427;28;20032;-66
2021/08/16 02:51:05;;;;;;;6.25;1.15;;;17.70;99.90;;;;;;5088958;28;20514;-66
2021/08/16 02:53:31;;;;;;;7.28;1.15;;;17.70;99.90;;;;;;5089529;28;20089;-67
2021/08/16 02:55:56;;;;;;;3.55;1.20;;;17.70;99.90;;;;;;5088433;28;20415;-66
2021/08/16 02:58:23;;;;;;;9.75;1.35;;;17.70;99.90;;;;;;5089401;28;20127;-66
2021/08/16 03:00:49;;;;;;;11.32;1.60;;;17.80;99.90;;;;;;5088270;28;20039;-67
2021/08/16 03:03:14;;;;;;;6.22;1.10;;;17.80;99.90;;;;;;5088898;28;20385;-67
2021/08/16 03:05:40;;;;;;;11.10;1.52;;;17.80;99.90;;;;;;5088630;28;20039;-66
2021/08/16 03:08:06;;;;;;;14.77;1.40;;;17.80;99.90;;;;;;5088992;28;20036;-66
2021/08/16 03:10:33;;;;;;;6.80;1.75;;;17.80;99.90;;;;;;5089055;28;20117;-66
2021/08/16 03:12:59;;;;;;;7.57;1.23;;;17.90;99.90;;;;;;5088663;28;20133;-66
2021/08/16 03:15:25;;;;;;;10.27;1.45;;;17.90;99.90;;;;;;5088792;28;20035;-66
2021/08/16 03:17:51;;;;;;;6.75;1.45;;;17.90;99.90;;;;;;5088484;28;20399;-66
2021/08/16 03:20:16;;;;;;;4.82;1.52;;;17.90;99.90;;;;;;5088944;28;20026;-67
2021/08/16 03:22:42;;;;;;;8.52;1.67;;;17.90;99.90;;;;;;5088993;28;20032;-66
2021/08/16 03:25:09;;;;;;;6.93;1.58;;;17.90;99.90;;;;;;5084635;28;20557;-66
2021/08/16 03:27:35;;;;;;;7.32;1.08;;;17.90;99.90;;;;;;5088778;28;20024;-66
2021/08/16 03:30:02;;;;;;;5.85;1.20;;;17.90;99.90;;;;;;5078618;28;20032;-66
2021/08/16 03:32:28;;;;;;;12.13;1.65;;;17.90;99.90;;;;;;5089126;28;20059;-66
2021/08/16 03:34:54;;;;;;;7.35;1.30;;;17.80;99.90;;;;;;5088678;28;20040;-66
2021/08/16 03:37:19;;;;;;;8.90;1.33;;;17.80;99.90;;;;;;5084392;28;20032;-67
2021/08/16 03:39:45;;;;;;;8.88;1.50;;;17.80;99.90;;;;;;5088800;28;20039;-66
2021/08/16 03:42:10;;;;;;;18.60;2.85;;;17.80;99.90;;;;;;5078856;28;20035;-66
2021/08/16 03:44:36;;;;;;;2.97;0.93;;;17.80;99.90;;;;;;5088993;28;20225;-66
2021/08/16 03:47:02;;;;;;;9.98;1.27;;;17.80;99.90;;;;;;5088389;28;20123;-66
2021/08/16 03:49:28;;;;;;;7.55;1.25;;;17.80;99.90;;;;;;5088614;28;20731;-66
2021/08/16 03:51:53;;;;;;;6.13;1.10;;;17.80;99.90;;;;;;5078297;28;20032;-66
2021/08/16 03:54:19;;;;;;;13.25;1.42;;;17.80;99.90;;;;;;5088688;28;20036;-66
2021/08/16 03:56:44;;;;;;;8.52;1.10;;;17.80;99.90;;;;;;5088599;28;20503;-66
2021/08/16 03:59:10;;;;;;;9.02;0.98;;;17.80;99.90;;;;;;5088552;28;20396;-66
2021/08/16 04:01:36;;;;;;;5.65;0.85;;;17.80;99.90;;;;;;5084902;28;20063;-66
2021/08/16 04:04:02;;;;;;;10.38;1.50;;;17.80;99.90;;;;;;5078516;28;20024;-66
2021/08/16 04:06:28;;;;;;;11.00;1.70;;;17.80;99.90;;;;;;5088326;28;20024;-66
2021/08/16 04:08:54;;;;;;;11.52;2.17;;;17.80;99.90;;;;;;5088203;28;20068;-67
2021/08/16 04:11:20;;;;;;;10.77;1.25;;;17.80;99.90;;;;;;5088100;28;23084;-66
2021/08/16 04:13:46;;;;;;;10.38;1.08;;;17.80;99.90;;;;;;5077538;28;20096;-66
2021/08/16 04:16:11;;;;;;;7.22;0.98;;;17.80;99.90;;;;;;5087634;28;20033;-66
2021/08/16 04:18:37;;;;;;;6.97;1.80;;;17.80;99.90;;;;;;5088377;28;20032;-66
2021/08/16 04:21:03;;;;;;;12.25;0.98;;;17.80;99.90;;;;;;5078695;28;20408;-66
2021/08/16 04:23:29;;;;;;;7.88;1.60;;;17.80;99.90;;;;;;5078350;28;20024;-66
2021/08/16 04:25:55;;;;;;;7.32;1.20;;;17.80;99.90;;;;;;5078585;28;20107;-66
2021/08/16 04:28:20;;;;;;;8.02;1.10;;;17.90;99.90;;;;;;5087377;28;20728;-66
2021/08/16 04:30:46;;;;;;;7.78;1.00;;;17.80;99.90;;;;;;5088067;28;20032;-66
2021/08/16 04:33:13;;;;;;;10.23;1.10;;;17.80;99.90;;;;;;5088161;28;20085;-66
2021/08/16 04:35:39;;;;;;;7.57;1.60;;;17.70;99.90;;;;;;5090833;28;20114;-67
2021/08/16 04:38:05;;;;;;;4.00;1.00;;;17.70;99.90;;;;;;5091547;28;20035;-66
2021/08/16 04:40:30;;;;;;;7.50;1.23;;;17.70;99.90;;;;;;5093391;28;20032;-66
2021/08/16 04:42:56;;;;;;;4.70;0.95;;;17.80;99.90;;;;;;5094378;28;20062;-66
2021/08/16 04:45:22;;;;;;;8.55;1.25;;;17.70;99.90;;;;;;5092676;28;20387;-66
2021/08/16 04:47:48;;;;;;;7.45;1.70;;;17.70;99.90;;;;;;5091744;28;20021;-66
2021/08/16 04:50:15;;;;;;;7.03;1.02;;;17.80;99.90;;;;;;5090659;28;20124;-66
2021/08/16 04:52:41;;;;;;;7.60;1.40;;;17.70;99.90;;;;;;5091629;28;20557;-67
2021/08/16 04:55:07;;;;;;;9.82;1.20;;;17.70;99.90;;;;;;5092067;28;20028;-66
2021/08/16 04:57:36;;;;;;;6.43;1.42;;;17.60;99.90;;;;;;5086947;28;20077;-67
2021/08/16 05:00:07;;;;;;;7.15;0.82;;;17.50;99.90;;;;;;5087558;28;20803;-66
2021/08/16 05:02:32;;;;;;;8.50;2.25;;;17.50;99.90;;;;;;5073182;28;20056;-70
2021/08/16 05:05:06;;;;;;;4.57;0.98;;;17.30;99.90;;;;;;5088642;28;20055;-66
2021/08/16 05:07:32;;;;;;;11.32;2.25;;;17.30;99.90;;;;;;5075382;28;20039;-66
2021/08/16 05:09:58;;;;;;;6.85;1.20;;;17.20;99.90;;;;;;5088704;28;20044;-66
2021/08/16 05:12:23;;;;;;;14.77;1.70;;;17.20;99.90;;;;;;5086030;28;20626;-65
2021/08/16 05:14:49;;;;;;;7.65;2.03;;;17.10;99.90;;;;;;5087855;28;20261;-66
2021/08/16 05:17:14;;;;;;;7.13;1.38;;;17.10;99.90;;;;;;5087560;28;20028;-66
2021/08/16 05:19:40;;;;;;;12.80;1.63;;;17.10;99.90;;;;;;5088463;28;20044;-67
2021/08/16 05:22:09;;;;;;;6.75;1.33;;;17.10;99.90;;;;;;5088378;28;20032;-66
2021/08/16 05:24:35;;;;;;;9.35;2.03;;;17.10;99.90;;;;;;5086275;28;24616;-67
2021/08/16 05:27:02;;;;;;;9.25;1.45;;;17.10;99.90;;;;;;5084996;28;20039;-66
2021/08/16 05:29:28;;;;;;;11.73;1.98;;;17.10;99.90;;;;;;5087706;28;20040;-66
2021/08/16 05:31:54;;;;;;;6.15;1.42;;;17.10;99.90;;;;;;5088306;28;21866;-66
2021/08/16 05:34:20;;;;;;;8.75;1.70;;;17.10;99.90;;;;;;5086503;28;20066;-66
2021/08/16 05:36:46;;;;;;;8.65;1.48;;;17.10;99.90;;;;;;5078635;28;20086;-66
2021/08/16 05:39:11;;;;;;;4.72;1.27;;;17.10;99.90;;;;;;5087772;28;20048;-66
2021/08/16 05:41:37;;;;;;;9.32;1.73;;;17.10;99.90;;;;;;5088129;28;20062;-66
2021/08/16 05:44:03;;;;;;;6.55;1.25;;;17.10;99.90;;;;;;5088057;28;20039;-66
2021/08/16 05:46:28;;;;;;;13.57;1.30;;;17.10;99.90;;;;;;5065762;28;20112;-67
2021/08/16 05:48:54;;;;;;;4.80;1.17;;;17.10;99.90;;;;;;5066792;28;20613;-65
2021/08/16 05:51:19;;;;;;;10.98;0.90;;;17.10;99.90;;;;;;5062010;28;20037;-67
2021/08/16 05:53:45;;;;;;;5.78;1.20;;;17.10;99.90;;;;;;5067207;28;20033;-67
2021/08/16 05:56:10;;;;;;;4.25;0.80;;;17.10;99.90;;;;;;5066938;28;20071;-69
2021/08/16 05:58:36;;;;;;;7.97;1.33;;;17.00;99.90;;;;;;5067504;28;20039;-66
2021/08/16 06:01:02;;;;;;;9.88;0.90;;;17.00;99.90;;;;;;5067350;28;20028;-66
2021/08/16 06:03:27;;;;;;;4.95;0.50;;;17.00;99.90;;;;;;5067275;28;20060;-66
2021/08/16 06:05:53;;;;;;;2.33;0.68;;;16.90;99.90;;;;;;5067445;28;20489;-67
2021/08/16 06:08:18;;;;;;;1.60;0.50;;;17.00;99.90;;;;;;5068621;28;20512;-67
2021/08/16 06:10:44;;;;;;;2.30;0.50;;;16.90;99.90;;;;;;5068087;28;20512;-66
2021/08/16 06:13:09;;;;;;;4.25;0.63;;;16.90;99.90;;;;;;5068084;28;20024;-66
2021/08/16 06:15:35;;;;;;;1.58;0.40;;;16.90;99.90;;;;;;5065809;28;20051;-66
2021/08/16 06:18:00;;;;;;;2.75;0.60;;;16.80;99.90;;;;;;5065946;28;20024;-66
2021/08/16 06:20:26;;;;;;;1.77;0.60;;;16.80;99.90;;;;;;5068320;28;20034;-66
2021/08/16 06:22:52;;;;;;;1.95;0.60;;;16.90;99.90;;;;;;5066452;28;20032;-67
2021/08/16 06:25:17;;;;;;;5.28;1.67;;;16.90;99.90;;;;;;5065781;28;20028;-66
2021/08/16 06:27:43;;;;;;;5.38;1.08;;;17.00;99.90;;;;;;5064127;28;20031;-67
2021/08/16 06:30:10;;;;;;;3.42;1.05;;;17.00;99.90;;;;;;5066533;28;20029;-67
2021/08/16 06:32:36;;;;;;;4.22;1.00;;;17.00;99.90;;;;;;5066209;28;20058;-67
2021/08/16 06:35:02;;;;;;;4.07;0.95;;;16.90;99.90;;;;;;5067022;28;20485;-67
2021/08/16 06:37:28;;;;;;;4.75;0.90;;;16.90;99.90;;;;;;5064462;28;20029;-67
2021/08/16 06:39:54;;;;;;;6.00;1.25;;;16.90;99.90;;;;;;5066520;28;20043;-67
2021/08/16 06:42:20;;;;;;;6.60;2.20;;;16.90;99.90;;;;;;5067443;28;20070;-66
2021/08/16 06:44:45;;;;;;;8.43;1.35;;;16.90;99.90;;;;;;5066681;28;20614;-66
2021/08/16 06:47:12;;;;;;;8.38;1.08;;;16.90;99.90;;;;;;5067334;28;20028;-66
2021/08/16 06:49:37;;;;;;;5.18;0.90;;;16.80;99.90;;;;;;5066969;28;20040;-65
2021/08/16 06:52:03;;;;;;;6.35;0.90;;;16.90;99.90;;;;;;5067156;28;20052;-66
2021/08/16 06:54:29;;;;;;;7.32;1.30;;;16.90;99.90;;;;;;5063709;28;20036;-68
2021/08/16 06:56:55;;;;;;;5.70;1.25;;;17.00;99.90;;;;;;5064086;28;20396;-68
2021/08/16 06:59:20;;;;;;;9.00;1.05;;;17.00;99.90;;;;;;5064734;28;20567;-68
2021/08/16 07:01:46;;;;;;;4.75;0.93;;;17.00;99.90;;;;;;5063730;28;20131;-68
2021/08/16 07:04:12;;;;;;;6.15;1.00;;;17.00;99.90;;;;;;5066434;28;20047;-68
2021/08/16 07:06:37;;;;;;;2.63;0.93;;;17.00;99.90;;;;;;5062981;28;20534;-68
2021/08/16 07:09:03;;;;;;;6.18;1.23;;;16.90;99.90;;;;;;5086210;28;20046;-68
2021/08/16 07:11:29;;;;;;;4.70;1.40;;;16.80;99.90;;;;;;5070915;28;20032;-65
2021/08/16 07:13:54;;;;;;;5.55;1.55;;;16.70;99.90;;;;;;5086582;28;20045;-66
2021/08/16 07:16:21;;;;;;;6.03;1.25;;;16.60;99.90;;;;;;5086204;28;20039;-68
2021/08/16 07:18:47;;;;;;;6.18;1.13;;;16.50;99.90;;;;;;5081586;28;20040;-68
2021/08/16 07:21:13;;;;;;;3.55;0.98;;;16.40;99.90;;;;;;5086920;28;20496;-68
2021/08/16 07:23:39;;;;;;;3.78;1.33;;;16.40;99.90;;;;;;5085892;28;20081;-67
2021/08/16 07:26:06;;;;;;;5.43;1.25;;;16.30;99.90;;;;;;5085702;28;20040;-69
2021/08/16 07:28:32;;;;;;;9.07;1.98;;;16.30;99.90;;;;;;5086081;28;20038;-68
2021/08/16 07:30:59;;;;;;;8.15;1.60;;;16.30;99.90;;;;;;5085431;28;20032;-68
2021/08/16 07:33:26;;;;;;;6.03;1.00;;;16.20;99.90;;;;;;5068397;28;20032;-68
2021/08/16 07:35:51;;;;;;;5.57;1.15;;;16.20;99.90;;;;;;5085207;28;20067;-69
2021/08/16 07:38:17;;;;;;;4.93;1.27;;;16.20;99.90;;;;;;5085906;28;20063;-69
2021/08/16 07:40:43;;;;;;;4.85;1.20;;;16.30;99.90;;;;;;5071953;28;20036;-66
2021/08/16 07:43:09;;;;;;;6.75;1.25;;;16.30;99.90;;;;;;5053497;28;20056;-67
2021/08/16 07:45:35;;;;;;;4.40;1.38;;;16.40;99.90;;;;;;5070093;28;20039;-67
2021/08/16 07:48:03;;;;;;;4.65;1.23;;;16.40;99.90;;;;;;5067052;28;20040;-67
2021/08/16 07:50:29;;;;;;;4.15;1.10;;;16.50;99.90;;;;;;5068668;28;20028;-67
2021/08/16 07:52:54;;;;;;;9.40;1.45;;;16.50;99.90;;;;;;5067284;28;20515;-66
2021/08/16 07:55:20;;;;;;;8.38;1.20;;;16.50;99.90;;;;;;5067334;28;20025;-67
2021/08/16 07:57:45;;;;;;;3.33;0.90;;;16.50;99.90;;;;;;5066803;28;20456;-68
2021/08/16 08:00:12;;;;;;;3.97;1.42;;;16.50;99.90;;;;;;5066674;28;20032;-70
2021/08/16 08:02:57;;;;;;;7.75;2.20;;;16.60;99.90;;;;;;5068477;28;20476;-68
2021/08/16 08:05:24;;;;;;;8.77;1.60;;;16.70;99.90;;;;;;5063729;28;20060;-68
2021/08/16 08:07:51;;;;;;;7.07;1.55;;;16.70;99.90;;;;;;5067205;28;20113;-68
2021/08/16 08:10:19;;;;;;;4.65;1.00;;;16.70;99.90;;;;;;5067533;28;20105;-68
2021/08/16 08:12:45;;;;;;;7.03;0.82;;;16.70;99.90;;;;;;5073293;28;20036;-69
2021/08/16 08:15:13;;;;;;;5.95;1.10;;;16.70;99.90;;;;;;5068031;28;20055;-68
2021/08/16 08:17:38;;;;;;;9.23;1.42;;;16.80;99.90;;;;;;5071309;28;20458;-68
2021/08/16 08:20:06;;;;;;;3.08;0.82;;;16.90;99.90;;;;;;5068994;28;20123;-68
2021/08/16 08:22:32;;;;;;;6.57;1.30;;;17.00;99.90;;;;;;5070587;28;20107;-68
2021/08/16 08:24:58;;;;;;;6.70;1.58;;;17.00;99.90;;;;;;5070414;28;20037;-68
2021/08/16 08:27:24;;;;;;;4.70;1.00;;;17.10;99.90;;;;;;5071774;28;20043;-69
2021/08/16 08:29:49;;;;;;;10.20;1.67;;;17.20;99.90;;;;;;5089056;28;20040;-68
2021/08/16 08:32:16;;;;;;;5.70;1.20;;;17.20;99.90;;;;;;5088761;28;20123;-68
2021/08/16 08:34:42;;;;;;;6.20;1.23;;;17.20;99.90;;;;;;5089137;28;20514;-69
2021/08/16 08:37:13;;;;;;;4.60;1.55;;;17.30;99.90;;;;;;5088606;28;20138;-68
2021/08/16 08:39:42;;;;;;;6.78;1.23;;;17.40;99.90;;;;;;5088651;28;20057;-68
2021/08/16 08:42:11;;;;;;;6.07;1.80;;;17.30;99.90;;;;;;5088496;28;20024;-68
2021/08/16 08:44:38;;;;;;;13.63;2.25;;;17.30;99.90;;;;;;5089874;28;20084;-68
2021/08/16 08:47:03;;;;;;;8.20;1.42;;;17.30;99.90;;;;;;5088657;28;20036;-68
2021/08/16 08:49:29;;;;;;;5.90;1.10;;;17.30;99.90;;;;;;5088602;28;20028;-68
2021/08/16 08:51:55;;;;;;;5.00;1.45;;;17.30;99.90;;;;;;5088371;28;20031;-67
2021/08/16 08:54:20;;;;;;;8.75;1.63;;;17.40;99.90;;;;;;5078418;28;20396;-66
2021/08/16 08:56:46;;;;;;;2.97;1.67;;;17.40;99.90;;;;;;5086011;28;20067;-66
2021/08/16 08:59:13;;;;;;;7.68;1.63;;;17.50;99.90;;;;;;5089748;28;20068;-68
2021/08/16 09:01:59;;;;;;;5.85;1.85;;;17.90;99.90;;;;;;5091687;28;20096;-69
2021/08/16 09:04:25;;;;;;;6.38;1.77;;;18.40;99.90;;;;;;5088117;28;20028;-68
2021/08/16 09:06:51;;;;;;;7.78;2.60;;;18.60;99.90;;;;;;5090763;28;20039;-68
2021/08/16 09:09:18;;;;;;;6.38;1.92;;;18.50;99.90;;;;;;5063461;28;20421;-68
2021/08/16 09:11:48;;;;;;;13.95;2.45;;;18.40;99.90;;;;;;5077075;28;20595;-68
2021/08/16 09:14:15;;;;;;;11.88;2.13;;;18.10;99.90;;;;;;5068066;28;20059;-68
2021/08/16 09:16:43;;;;;;;5.93;1.83;;;17.90;99.90;;;;;;5067546;28;20036;-68
2021/08/16 09:19:13;;;;;;;3.95;1.55;;;17.80;99.90;;;;;;5066298;28;20043;-69
2021/08/16 09:21:42;;;;;;;6.50;2.10;;;17.90;99.90;;;;;;5066438;28;20074;-68
2021/08/16 09:24:08;;;;;;;14.95;2.55;;;17.90;99.90;;;;;;5068297;28;20047;-66
2021/08/16 09:26:37;;;;;;;10.10;2.10;;;18.10;99.90;;;;;;5066620;28;20412;-66
2021/08/16 09:29:17;;;;;;;7.38;2.35;;;18.20;99.90;;;;;;5067968;28;20036;-66
2021/08/16 09:31:57;;;;;;;7.90;2.15;;;18.20;99.90;;;;;;5067407;28;20036;-66
2021/08/16 09:34:28;;;;;;;13.57;2.30;;;18.30;99.90;;;;;;5064398;28;20078;-66
2021/08/16 09:36:54;;;;;;;12.27;2.53;;;18.40;99.90;;;;;;5067799;28;20116;-66
2021/08/16 09:39:21;;;;;;;5.47;1.60;;;18.30;99.90;;;;;;5067564;28;20135;-68
2021/08/16 09:41:47;;;;;;;8.18;2.15;;;18.20;99.90;;;;;;5067890;28;20059;-66
2021/08/16 09:44:14;;;;;;;6.20;2.08;;;18.20;99.90;;;;;;5067611;28;20045;-66
2021/08/16 09:46:41;;;;;;;5.35;1.63;;;18.20;99.90;;;;;;5066132;28;20040;-66
2021/08/16 09:49:08;;;;;;;6.25;2.13;;;18.50;99.90;;;;;;5067603;28;20098;-66
2021/08/16 09:51:35;;;;;;;8.80;2.17;;;18.80;99.90;;;;;;5067939;28;20772;-66
2021/08/16 09:54:02;;;;;;;6.30;1.67;;;19.00;99.90;;;;;;5066744;28;20021;-66
2021/08/16 09:56:28;;;;;;;7.00;2.08;;;19.40;99.90;;;;;;5058338;28;20257;-66
2021/08/16 09:58:55;;;;;;;7.00;1.70;;;19.50;99.90;;;;;;5083786;28;20036;-66
2021/08/16 10:01:21;;;;;;;7.40;1.38;;;19.70;99.90;;;;;;5084126;28;20032;-66
2021/08/16 10:03:47;;;;;;;3.35;1.38;;;19.40;99.90;;;;;;5085115;28;20036;-66
2021/08/16 10:06:14;;;;;;;5.40;1.25;;;19.30;99.90;;;;;;5084380;28;20819;-65
2021/08/16 10:08:49;;;;;;;3.65;1.30;;;19.40;99.90;;;;;;5084604;28;20036;-66
2021/08/16 10:11:18;;;;;;;3.15;1.48;;;19.50;99.90;;;;;;5064923;28;20025;-66
2021/08/16 10:13:49;;;;;;;6.38;1.38;;;19.50;99.90;;;;;;5084949;28;20252;-66
2021/08/16 10:16:20;;;;;;;2.80;1.10;;;19.40;99.90;;;;;;5069193;28;20089;-66
2021/08/16 10:18:50;;;;;;;3.67;1.42;;;19.40;99.90;;;;;;5083089;28;20050;-66
2021/08/16 10:21:22;;;;;;;;;;;19.20;99.90;;;;;;5085086;28;20042;-67
2021/08/16 10:23:54;;;;;;;6.05;1.63;;;19.20;99.90;;;;;;5082062;28;20002;-66
2021/08/16 10:26:35;;;;;;;3.65;1.58;;;19.20;99.90;;;;;;5065399;28;20041;-66
2021/08/16 10:29:04;;;;;;;3.25;1.00;;;19.30;99.90;;;;;;5063443;28;20205;-66
2021/08/16 10:31:32;;;;;;;2.63;1.10;;;19.50;99.90;;;;;;5063701;28;20452;-66
2021/08/16 10:33:59;;;;;;;5.35;1.75;;;19.60;99.90;;;;;;5062137;28;20076;-66
2021/08/16 10:36:25;;;;;;;7.28;1.50;;;19.80;99.90;;;;;;5063197;28;20028;-66
2021/08/16 10:38:54;;;;;;;3.53;1.20;;;20.00;99.90;;;;;;5061750;28;20579;-67
2021/08/16 10:41:39;;;;;;;4.05;1.35;;;20.20;99.90;;;;;;5062604;28;20030;-66
2021/08/16 10:44:13;;;;;;;4.03;1.90;;;20.50;99.90;;;;;;5062645;28;20094;-67
2021/08/16 10:46:39;;;;;;;4.70;2.42;;;20.30;99.90;;;;;;5061197;28;20032;-67
2021/08/16 10:49:15;;;;;;;3.38;1.77;;;20.20;99.90;;;;;;5064058;28;20609;-67
2021/08/16 10:51:42;;;;;;;6.43;2.10;;;20.10;99.90;;;;;;5064239;28;20036;-67
2021/08/16 10:54:08;;;;;;;6.85;2.25;;;19.80;99.90;;;;;;5061580;28;20463;-66
2021/08/16 10:56:34;;;;;;;6.00;1.75;;;19.80;99.90;;;;;;5057724;28;20384;-67
2021/08/16 10:59:01;;;;;;;5.13;1.92;;;19.70;99.90;;;;;;5058628;28;20120;-67
2021/08/16 11:01:32;;;;;;;9.25;1.77;;;19.60;99.90;;;;;;5065336;28;20054;-67
2021/08/16 11:04:00;;;;;;;7.28;1.50;;;19.60;99.90;;;;;;5065470;28;20039;-67
2021/08/16 11:06:27;;;;;;;4.25;1.75;;;19.40;99.90;;;;;;5065570;28;20128;-67
2021/08/16 11:09:05;;;;;;;4.35;1.58;;;19.20;99.90;;;;;;5064644;28;20586;-67
2021/08/16 11:11:34;;;;;;;2.40;1.30;;;19.10;99.90;;;;;;5065335;28;20029;-67
2021/08/16 11:14:08;;;;;;;3.20;1.13;;;18.90;99.90;;;;;;5064995;28;20036;-67
2021/08/16 11:16:34;;;;;;;5.20;1.27;;;18.60;99.90;;;;;;5065731;28;20040;-67
2021/08/16 11:19:00;;;;;;;7.68;1.35;;;18.30;99.90;;;;;;5062245;28;20036;-67
2021/08/16 11:21:29;;;;;;;3.22;1.23;;;18.00;99.90;;;;;;5066265;28;20748;-66
2021/08/16 11:23:57;;;;;;;4.88;1.20;;;17.70;99.90;;;;;;5065478;28;20074;-67
2021/08/16 11:26:22;;;;;;;8.93;1.50;;;17.60;99.90;;;;;;5065734;28;20028;-66
2021/08/16 11:28:48;;;;;;;3.67;1.35;;;17.40;99.90;;;;;;5066162;28;20047;-67
2021/08/16 11:31:14;;;;;;;4.30;1.35;;;17.50;99.90;;;;;;5065486;28;20064;-66
2021/08/16 11:33:39;;;;;;;3.40;1.58;;;17.50;99.90;;;;;;5066467;28;20051;-66
2021/08/16 11:36:13;;;;;;;5.68;2.15;;;17.70;99.90;;;;;;5064094;28;20033;-67
2021/08/16 11:38:43;;;;;;;7.00;1.83;;;17.80;99.90;;;;;;5065274;28;20098;-66
2021/08/16 11:41:13;;;;;;;7.10;1.40;;;17.80;99.90;;;;;;5064361;28;20488;-66
2021/08/16 11:43:39;;;;;;;10.60;2.28;;;17.80;99.90;;;;;;5066584;28;20028;-66
2021/08/16 11:46:15;;;;;;;3.03;0.93;;;17.70;99.90;;;;;;5067578;28;20032;-67
2021/08/16 11:48:52;;;;;;;9.20;1.30;;;17.50;99.90;;;;;;5067889;28;20036;-66
2021/08/16 11:51:18;;;;;;;4.53;1.08;;;17.30;99.90;;;;;;5068292;28;20055;-67
2021/08/16 11:53:47;;;;;;;9.50;2.03;;;17.10;99.90;;;;;;5069132;28;20519;-67
2021/08/16 11:56:13;;;;;;;13.63;1.15;;;17.30;99.90;;;;;;5069011;28;20029;-67
2021/08/16 11:58:41;;;;;;;8.60;1.30;;;17.30;99.90;;;;;;5067061;28;20178;-68
2021/08/16 12:01:09;;;;;;;11.68;1.40;;;17.40;99.90;;;;;;5087754;28;20488;-67
2021/08/16 12:03:35;;;;;;;10.95;1.95;;;17.50;99.90;;;;;;5090496;28;20039;-67
2021/08/16 12:06:09;;;;;;;9.70;2.08;;;17.60;99.90;;;;;;5089001;28;20088;-67
2021/08/16 12:08:35;;;;;;;6.65;1.08;;;17.70;99.90;;;;;;5087704;28;20064;-67
2021/08/16 12:11:09;;;;;;;8.23;1.42;;;17.80;99.90;;;;;;5089561;28;20105;-67
2021/08/16 12:13:35;;;;;;;6.03;1.30;;;18.00;99.90;;;;;;5090317;28;20394;-68
2021/08/16 12:16:00;;;;;;;8.50;1.20;;;18.20;99.90;;;;;;5089465;28;20024;-67
2021/08/16 12:18:28;;;;;;;3.13;0.98;;;18.30;99.90;;;;;;5089753;28;20049;-66
2021/08/16 12:20:54;;;;;;;7.75;1.02;;;18.40;99.90;;;;;;5090215;28;20047;-67
2021/08/16 12:23:27;;;;;;;9.40;1.23;;;18.60;99.90;;;;;;5087976;28;20043;-67
2021/08/16 12:25:55;;;;;;;6.13;1.00;;;18.60;99.90;;;;;;5089363;28;20518;-66
2021/08/16 12:28:20;;;;;;;8.27;1.02;;;18.60;99.90;;;;;;5090017;28;20039;-66
2021/08/16 12:30:47;;;;;;;7.63;0.80;;;18.70;99.90;;;;;;5089070;28;20035;-67
2021/08/16 12:33:15;;;;;;;5.65;0.98;;;18.70;99.90;;;;;;5089471;28;20456;-66
2021/08/16 12:35:53;;;;;;;3.08;0.85;;;18.60;99.90;;;;;;5089751;28;20036;-67
2021/08/16 12:38:31;;;;;;;8.63;1.13;;;18.60;99.90;;;;;;5068049;28;20490;-66
2021/08/16 12:41:02;;;;;;;7.38;0.90;;;18.50;99.90;;;;;;5068216;28;20354;-67
2021/08/16 12:43:37;;;;;;;5.53;0.82;;;18.40;99.90;;;;;;5068096;28;20040;-67